Time;durP1;ratioP1;P1;durP2;ratioP2;P2;SDS_P1;SDS_P2;PMS_P1;PMS_P2;Temp;Humidity;BMP_temperature;BMP_pressure;BME280_temperature;BME280_humidity;BME280_pressure;Samples;Min_cycle;Max_cycle;Signal;HPM_P1;HPM_P2
2023/06/13 00:02:22;;;;;;;7.80;3.78;;;16.80;99.90;;;;;;12552100;23;20198;-88
2023/06/13 00:07:45;;;;;;;14.05;4.50;;;16.80;99.90;;;;;;12549590;23;20365;-88
2023/06/13 00:13:08;;;;;;;14.90;4.82;;;17.70;1.00;;;;;;12549272;23;20246;-88
2023/06/13 00:18:30;;;;;;;14.07;4.63;;;;;;;;;;12549982;23;20193;-88
2023/06/13 00:23:52;;;;;;;8.88;3.80;;;16.50;99.90;;;;;;12633661;23;20182;-87
2023/06/13 00:29:14;;;;;;;8.93;3.78;;;16.50;99.90;;;;;;12549100;23;20174;-87
2023/06/13 00:34:37;;;;;;;10.20;3.08;;;16.50;99.90;;;;;;12529502;23;20207;-88
2023/06/13 00:39:59;;;;;;;5.93;3.05;;;16.40;99.90;;;;;;12633222;23;20242;-87
2023/06/13 00:45:24;;;;;;;5.40;2.72;;;16.50;99.90;;;;;;12549673;23;20178;-88
2023/06/13 00:50:47;;;;;;;17.45;3.42;;;16.40;99.90;;;;;;12529640;23;20242;-88
2023/06/13 00:56:09;;;;;;;5.82;3.05;;;16.40;99.90;;;;;;12549114;23;20228;-88
2023/06/13 01:01:31;;;;;;;4.15;2.63;;;16.40;99.90;;;;;;12529060;23;20174;-88
2023/06/13 01:06:53;;;;;;;3.70;2.53;;;16.30;99.90;;;;;;12554229;23;20542;-88
2023/06/13 01:12:29;;;;;;;10.40;2.25;;;16.30;99.90;;;;;;12569316;23;20190;-87
2023/06/13 01:17:58;;;;;;;5.40;2.40;;;16.20;99.90;;;;;;12600934;23;20356;-87
2023/06/13 01:23:36;;;;;;;7.07;2.38;;;16.30;99.90;;;;;;12564224;23;20171;-88
2023/06/13 01:29:01;;;;;;;6.82;2.60;;;16.10;99.90;;;;;;12654438;23;20210;-87
2023/06/13 01:34:26;;;;;;;6.60;2.03;;;16.00;99.90;;;;;;12632474;23;20205;-87
2023/06/13 01:39:48;;;;;;;5.05;2.40;;;16.00;99.90;;;;;;12654589;23;20177;-87
2023/06/13 01:45:10;;;;;;;3.70;2.35;;;16.00;99.90;;;;;;12549205;23;20498;-88
2023/06/13 01:50:56;;;;;;;3.88;2.15;;;15.80;99.90;;;;;;12655283;23;20244;-87
2023/06/13 01:56:22;;;;;;;3.88;2.35;;;15.80;99.90;;;;;;12652925;23;20428;-87
2023/06/13 02:01:45;;;;;;;4.53;2.10;;;15.70;99.90;;;;;;12568066;23;20346;-87
2023/06/13 02:07:08;;;;;;;5.93;2.60;;;15.80;99.90;;;;;;12548480;23;20215;-87
2023/06/13 02:12:29;;;;;;;4.43;2.17;;;15.70;99.90;;;;;;12548214;23;20244;-87
2023/06/13 02:17:51;;;;;;;2.13;1.60;;;15.70;99.90;;;;;;12528275;23;20202;-87
2023/06/13 02:23:12;;;;;;;2.33;1.90;;;15.70;99.90;;;;;;12548387;23;20181;-87
2023/06/13 02:28:34;;;;;;;4.93;1.98;;;15.70;99.90;;;;;;12674071;23;20178;-86
2023/06/13 02:33:56;;;;;;;3.63;2.45;;;15.70;99.90;;;;;;12548088;23;20567;-87
2023/06/13 02:39:17;;;;;;;4.70;2.33;;;15.60;99.90;;;;;;12548200;23;20214;-87
2023/06/13 02:44:40;;;;;;;5.50;2.72;;;15.60;99.90;;;;;;12548380;23;20175;-87
2023/06/13 02:50:02;;;;;;;4.60;2.53;;;15.50;99.90;;;;;;12548158;23;20185;-87
2023/06/13 02:55:24;;;;;;;4.95;2.70;;;15.50;99.90;;;;;;12548036;23;20475;-87
2023/06/13 03:00:47;;;;;;;5.78;2.70;;;15.60;99.90;;;;;;12548214;23;20178;-86
2023/06/13 03:06:11;;;;;;;3.03;2.03;;;15.60;99.90;;;;;;12652648;23;20167;-87
2023/06/13 03:11:34;;;;;;;3.97;2.00;;;15.60;99.90;;;;;;12547861;23;20179;-87
2023/06/13 03:16:57;;;;;;;3.50;2.50;;;15.60;99.90;;;;;;12547871;23;20380;-85
2023/06/13 03:22:19;;;;;;;6.18;2.58;;;15.60;99.90;;;;;;12568123;23;20167;-86
2023/06/13 03:27:41;;;;;;;4.20;2.38;;;15.60;99.90;;;;;;12547560;23;20176;-86
2023/06/13 03:33:03;;;;;;;3.33;2.22;;;15.50;99.90;;;;;;12652078;23;20224;-87
2023/06/13 03:38:28;;;;;;;12.80;2.70;;;15.50;99.90;;;;;;12672010;23;20257;-86
2023/06/13 03:43:50;;;;;;;15.55;2.67;;;15.50;99.90;;;;;;12547589;23;20175;-86
2023/06/13 03:49:11;;;;;;;3.47;2.58;;;15.60;99.90;;;;;;12567094;23;20238;-87
2023/06/13 03:54:33;;;;;;;5.90;2.08;;;15.60;99.90;;;;;;12567320;23;20190;-86
2023/06/13 03:59:55;;;;;;;5.00;2.60;;;15.60;99.90;;;;;;12527130;23;20186;-86
2023/06/13 04:05:17;;;;;;;5.18;2.50;;;15.60;99.90;;;;;;12546580;23;20189;-87
2023/06/13 04:10:38;;;;;;;3.25;2.25;;;15.60;99.90;;;;;;12546508;23;20182;-87
2023/06/13 04:16:00;;;;;;;3.17;2.15;;;15.60;99.90;;;;;;12526628;23;20260;-87
2023/06/13 04:21:24;;;;;;;3.92;2.60;;;15.70;99.90;;;;;;12546328;23;20232;-87
2023/06/13 04:26:46;;;;;;;3.88;2.55;;;15.80;99.90;;;;;;12629854;23;20202;-87
2023/06/13 04:32:12;;;;;;;5.78;3.80;;;15.90;99.90;;;;;;12546830;23;20190;-87
2023/06/13 04:37:34;;;;;;;4.97;2.70;;;16.00;99.90;;;;;;12545697;23;20203;-87
2023/06/13 04:42:55;;;;;;;8.40;2.47;;;16.00;99.90;;;;;;12546309;23;20174;-86
2023/06/13 04:48:17;;;;;;;4.00;2.65;;;15.90;99.90;;;;;;12546679;23;20185;-86
2023/06/13 04:53:38;;;;;;;7.82;2.60;;;15.90;99.90;;;;;;12548521;23;20499;-86
2023/06/13 04:59:00;;;;;;;4.88;2.70;;;15.90;99.90;;;;;;12549005;23;20194;-86
2023/06/13 05:04:21;;;;;;;9.05;2.50;;;16.10;99.90;;;;;;12548686;23;20182;-88
2023/06/13 05:09:43;;;;;;;5.85;2.13;;;16.30;99.90;;;;;;12550365;23;20175;-87
2023/06/13 05:15:05;;;;;;;7.22;2.58;;;16.20;99.90;;;;;;12550468;23;20248;-89
2023/06/13 05:20:26;;;;;;;2.45;2.17;;;16.10;99.90;;;;;;12656918;23;20181;-87
2023/06/13 05:25:48;;;;;;;4.68;2.33;;;16.20;99.90;;;;;;12550151;23;20185;-87
2023/06/13 05:31:10;;;;;;;9.35;2.75;;;16.50;99.90;;;;;;12551192;23;20233;-88
2023/06/13 05:36:32;;;;;;;3.53;2.72;;;16.40;99.90;;;;;;12551545;23;20225;-87
2023/06/13 05:41:54;;;;;;;4.47;2.25;;;16.50;99.90;;;;;;12550734;23;20181;-86
2023/06/13 05:47:15;;;;;;;7.90;4.03;;;16.60;99.90;;;;;;12676234;23;20170;-88
2023/06/13 05:52:36;;;;;;;4.53;2.28;;;16.70;99.90;;;;;;12548944;23;20171;-87
2023/06/13 05:57:58;;;;;;;3.28;2.35;;;16.90;99.90;;;;;;12548499;23;20203;-88
2023/06/13 06:03:19;;;;;;;5.18;2.10;;;17.10;99.90;;;;;;12674595;23;20175;-88
2023/06/13 06:08:41;;;;;;;3.45;2.30;;;17.30;99.90;;;;;;12554512;23;20178;-88
2023/06/13 06:14:02;;;;;;;3.83;2.15;;;17.40;99.90;;;;;;12532335;23;20179;-88
2023/06/13 06:19:23;;;;;;;3.75;1.80;;;17.60;99.90;;;;;;12548097;23;20380;-87
2023/06/13 06:24:45;;;;;;;3.25;1.60;;;17.50;99.90;;;;;;12552292;23;20174;-88
2023/06/13 06:30:07;;;;;;;2.67;1.52;;;17.50;99.90;;;;;;12548508;23;20176;-88
2023/06/13 06:35:29;;;;;;;6.50;1.80;;;17.80;99.90;;;;;;12653860;23;20259;-88
2023/06/13 06:40:50;;;;;;;5.88;2.00;;;18.10;99.90;;;;;;12548645;23;20225;-87
2023/06/13 06:46:12;;;;;;;5.18;1.90;;;18.00;99.90;;;;;;12475561;23;20203;-87
2023/06/13 06:51:35;;;;;;;4.38;2.00;;;18.10;99.90;;;;;;12547118;23;20183;-87
2023/06/13 06:56:56;;;;;;;2.67;1.77;;;18.00;99.90;;;;;;12630244;23;20208;-92
2023/06/13 07:02:18;;;;;;;3.83;2.10;;;18.10;99.90;;;;;;12543615;23;20358;-88
2023/06/13 07:07:40;;;;;;;3.83;1.60;;;18.10;99.90;;;;;;12666402;23;20413;-87
2023/06/13 07:13:01;;;;;;;4.95;1.80;;;18.40;99.90;;;;;;12543702;23;20229;-90
2023/06/13 07:18:25;;;;;;;5.35;1.80;;;;;;;;;;12547073;23;20222;-88
2023/06/13 07:23:47;;;;;;;4.35;1.80;;;19.50;99.90;;;;;;12544697;23;20551;-86
2023/06/13 07:29:42;;;;;;;11.40;4.68;;;19.80;99.90;;;;;;12551419;23;20163;-85
2023/06/13 07:35:03;;;;;;;5.28;2.40;;;19.80;99.90;;;;;;12556272;23;20190;-83
2023/06/13 07:40:26;;;;;;;2.72;1.73;;;;;;;;;;12569133;23;20192;-83
2023/06/13 07:45:48;;;;;;;4.38;1.77;;;21.10;99.90;;;;;;12572718;23;20183;-87
2023/06/13 07:51:09;;;;;;;2.83;1.83;;;21.50;99.90;;;;;;12544524;23;20186;-88
2023/06/13 07:56:33;;;;;;;4.95;1.80;;;22.40;99.90;;;;;;12482166;23;20207;-83
2023/06/13 08:01:54;;;;;;;5.18;1.80;;;;;;;;;;12627888;23;20279;-84
2023/06/13 08:07:17;;;;;;;1.80;1.50;;;;;;;;;;12505269;23;20195;-82
2023/06/13 08:12:39;;;;;;;4.95;1.75;;;;;;;;;;12520847;23;20391;-86
2023/06/13 08:18:03;;;;;;;5.22;1.80;;;;;;;;;;12502897;23;20184;-85
2023/06/13 08:23:24;;;;;;;5.43;1.55;;;;;;;;;;12503533;23;20176;-87
2023/06/13 08:28:47;;;;;;;3.60;1.50;;;;;;;;;;12504091;23;20184;-85
2023/06/13 08:34:10;;;;;;;3.35;1.60;;;;;;;;;;12506719;23;20945;-87
2023/06/13 08:39:32;;;;;;;7.25;2.55;;;;;;;;;;12510922;23;20196;-88
2023/06/13 08:44:54;;;;;;;4.07;2.00;;;;;;;;;;12505568;23;20813;-86
2023/06/13 08:50:19;;;;;;;4.03;1.63;;;;;;;;;;12506772;23;20341;-86
2023/06/13 08:55:41;;;;;;;4.03;1.80;;;;;;;;;;12506795;23;20184;-82
2023/06/13 09:01:25;;;;;;;2.85;1.50;;;;;;;;;;12487827;23;20184;-81
2023/06/13 09:06:47;;;;;;;3.22;2.65;;;;;;;;;;12506581;23;20187;-86
2023/06/13 09:12:09;;;;;;;2.33;1.20;;;;;;;;;;12506468;23;20227;-86
2023/06/13 09:17:31;;;;;;;2.78;1.60;;;;;;;;;;12507380;23;20199;-84
2023/06/13 09:22:53;;;;;;;2.38;1.33;;;;;;;;;;12484074;23;20176;-89
2023/06/13 09:28:31;;;;;;;5.78;2.40;;;;;;;;;;12504661;23;20176;-82
2023/06/13 09:33:54;;;;;;;1.80;1.27;;;;;;;;;;12507195;23;20196;-88
2023/06/13 09:39:16;;;;;;;8.85;1.83;;;;;;;;;;12508376;23;20200;-87
2023/06/13 09:44:38;;;;;;;5.25;1.20;;;;;;;;;;12506723;23;20187;-88
2023/06/13 09:50:05;;;;;;;5.05;1.85;;;;;;;;;;12485172;23;20251;-85
2023/06/13 09:55:27;;;;;;;3.67;1.30;;;;;;;;;;12505440;23;20199;-86
2023/06/13 10:00:48;;;;;;;2.35;1.73;;;;;;;;;;12505317;23;20191;-84
2023/06/13 10:06:11;;;;;;;1.77;1.52;;;;;;;;;;12486233;23;20191;-91
2023/06/13 10:11:36;;;;;;;3.40;1.67;;;;;;;;;;12506002;23;20181;-87
2023/06/13 10:17:02;;;;;;;3.28;1.95;;;;;;;;;;12504749;23;20189;-87
2023/06/13 10:22:28;;;;;;;6.32;2.08;;;;;;;;;;12483721;23;20203;-85
2023/06/13 10:27:52;;;;;;;6.78;1.85;;;;;;;;;;12503683;23;20379;-85
2023/06/13 10:33:23;;;;;;;12.57;7.93;;;;;;;;;;12506848;23;20204;-86
2023/06/13 10:38:48;;;;;;;9.63;4.60;;;;;;;;;;12512843;23;20204;-85
2023/06/13 10:44:14;;;;;;;8.13;3.65;;;;;;;;;;12512044;23;20247;-87
2023/06/13 10:49:37;;;;;;;7.70;3.13;;;;;;;;;;12486231;23;20295;-87
2023/06/13 10:55:01;;;;;;;9.05;2.85;;;;;;;;;;12483745;23;20240;-87
2023/06/13 11:00:24;;;;;;;6.70;1.83;;;;;;;;;;12504258;23;20235;-84
2023/06/13 11:05:45;;;;;;;8.00;2.35;;;;;;;;;;12484119;23;20243;-85
2023/06/13 11:11:09;;;;;;;6.55;2.35;;;;;;;;;;12504224;23;20231;-90
2023/06/13 11:16:40;;;;;;;7.32;3.88;;;;;;;;;;12508078;23;20180;-88
2023/06/13 11:22:03;;;;;;;6.97;2.03;;;;;;;;;;12505495;23;20188;-88
2023/06/13 11:27:25;;;;;;;11.32;4.07;;;;;;;;;;12484552;23;20179;-88
2023/06/13 11:32:48;;;;;;;4.20;1.98;;;;;;;;;;12504803;23;20389;-83
2023/06/13 11:38:15;;;;;;;5.85;2.45;;;;;;;;;;12481415;23;20208;-83
2023/06/13 11:43:38;;;;;;;10.55;2.22;;;;;;;;;;12499443;23;20346;-82
2023/06/13 11:48:59;;;;;;;2.85;1.65;;;;;;;;;;12500296;23;20356;-81
2023/06/13 11:54:29;;;;;;;5.80;1.98;;;;;;;;;;12500567;23;20176;-81
2023/06/13 11:59:58;;;;;;;6.03;2.70;;;;;;;;;;12502801;23;20207;-81
2023/06/13 12:05:19;;;;;;;7.47;2.20;;;;;;;;;;12501140;23;20164;-82
2023/06/13 12:10:41;;;;;;;4.75;2.40;;;;;;;;;;12504865;23;20206;-87
2023/06/13 12:16:06;;;;;;;6.38;2.20;;;;;;;;;;12504472;23;20267;-88
2023/06/13 12:21:29;;;;;;;4.50;1.85;;;;;;;;;;12503085;23;20184;-83
2023/06/13 12:26:51;;;;;;;5.30;2.00;;;24.80;1.00;;;;;;12502570;23;20482;-83
2023/06/13 12:32:13;;;;;;;3.90;1.90;;;25.30;18.10;;;;;;12484897;23;20204;-85
2023/06/13 12:37:37;;;;;;;14.13;2.35;;;24.60;1.00;;;;;;12484105;23;20502;-85
2023/06/13 12:43:01;;;;;;;6.22;1.98;;;24.20;1.00;;;;;;12589257;23;20258;-83
2023/06/13 12:48:23;;;;;;;6.25;2.08;;;23.90;1.00;;;;;;12484244;23;20199;-84
2023/06/13 12:53:44;;;;;;;6.90;2.05;;;23.80;1.00;;;;;;12508139;23;20497;-84
2023/06/13 12:59:06;;;;;;;5.72;1.98;;;23.60;1.00;;;;;;12507229;23;20260;-84
2023/06/13 13:04:35;;;;;;;3.38;2.22;;;23.30;1.00;;;;;;12488515;23;20504;-91
2023/06/13 13:09:59;;;;;;;5.60;2.40;;;23.10;1.00;;;;;;12526648;23;20195;-79
2023/06/13 13:15:20;;;;;;;5.40;2.15;;;23.10;1.00;;;;;;12503740;23;20355;-80
2023/06/13 13:20:42;;;;;;;7.45;3.13;;;22.80;1.00;;;;;;12505499;23;20572;-80
2023/06/13 13:26:03;;;;;;;12.35;7.35;;;22.60;1.00;;;;;;12504659;23;20218;-82
2023/06/13 13:31:25;;;;;;;7.57;5.28;;;22.20;1.00;;;;;;12485111;23;20207;-79
2023/06/13 13:36:46;;;;;;;10.32;6.85;;;22.20;1.00;;;;;;12513496;23;20400;-80
2023/06/13 13:42:07;;;;;;;7.60;2.47;;;22.60;1.00;;;;;;12658256;22;20165;-79
2023/06/13 13:47:34;;;;;;;5.68;2.50;;;23.30;1.00;;;;;;12514162;23;20177;-80
2023/06/13 13:52:55;;;;;;;6.63;2.25;;;23.40;1.00;;;;;;12628331;23;20434;-80
2023/06/13 13:58:18;;;;;;;5.53;2.58;;;23.10;1.00;;;;;;12503870;23;20215;-85
2023/06/13 14:03:43;;;;;;;5.93;2.80;;;23.20;1.00;;;;;;12507769;23;20239;-89
2023/06/13 14:09:04;;;;;;;6.03;2.97;;;23.40;1.00;;;;;;12505768;23;20172;-82
2023/06/13 14:14:26;;;;;;;5.88;3.25;;;23.60;1.00;;;;;;12503031;23;20421;-77
2023/06/13 14:19:48;;;;;;;7.80;3.08;;;23.20;1.00;;;;;;12503570;23;20233;-84
2023/06/13 14:25:10;;;;;;;9.07;3.38;;;23.00;1.00;;;;;;12501493;23;20214;-82
2023/06/13 14:30:31;;;;;;;6.95;2.90;;;23.20;1.00;;;;;;12481891;23;20544;-82
2023/06/13 14:35:52;;;;;;;9.10;3.70;;;23.30;1.00;;;;;;12496149;23;20172;-78
2023/06/13 14:41:14;;;;;;;24.40;5.85;;;23.20;1.00;;;;;;12501896;23;20415;-81
2023/06/13 14:46:35;;;;;;;8.10;4.85;;;23.00;1.00;;;;;;12586551;23;20199;-80
2023/06/13 14:51:56;;;;;;;8.13;3.80;;;23.10;1.00;;;;;;12503520;23;20156;-78
2023/06/13 14:57:18;;;;;;;7.20;3.50;;;23.00;1.00;;;;;;12501533;23;20196;-78
2023/06/13 15:02:39;;;;;;;17.35;4.03;;;23.10;1.00;;;;;;12500633;23;20175;-80
2023/06/13 15:08:00;;;;;;;6.88;2.42;;;23.10;1.00;;;;;;12505149;23;20164;-79
2023/06/13 15:13:21;;;;;;;4.35;2.72;;;23.20;1.00;;;;;;12507209;23;20447;-76
2023/06/13 15:18:44;;;;;;;5.45;2.65;;;23.40;1.00;;;;;;12506217;23;20212;-82
2023/06/13 15:24:05;;;;;;;6.70;3.25;;;23.40;1.00;;;;;;12507719;23;20164;-76
2023/06/13 15:29:26;;;;;;;8.20;3.08;;;23.20;1.00;;;;;;12508208;23;20211;-78
2023/06/13 15:34:50;;;;;;;5.28;2.67;;;23.10;1.00;;;;;;12485304;23;20428;-76
2023/06/13 15:40:12;;;;;;;6.35;2.95;;;23.00;1.00;;;;;;12507813;23;20212;-77
2023/06/13 15:45:33;;;;;;;9.88;2.83;;;23.00;1.00;;;;;;12505602;23;20480;-75
2023/06/13 15:50:55;;;;;;;5.68;3.25;;;22.80;1.00;;;;;;12506998;23;20329;-76
2023/06/13 15:56:16;;;;;;;9.30;3.83;;;22.50;1.00;;;;;;12507001;23;20175;-77
2023/06/13 16:01:43;;;;;;;7.07;2.90;;;22.30;1.00;;;;;;12507762;23;20176;-79
2023/06/13 16:07:04;;;;;;;5.78;3.05;;;22.20;1.00;;;;;;12507717;23;20516;-78
2023/06/13 16:12:26;;;;;;;8.98;3.33;;;22.10;1.00;;;;;;12506559;23;20184;-77
2023/06/13 16:17:48;;;;;;;5.15;2.78;;;21.90;99.90;;;;;;12506807;23;20192;-78
2023/06/13 16:23:09;;;;;;;6.18;3.33;;;21.80;99.90;;;;;;12486165;23;20198;-78
2023/06/13 16:28:30;;;;;;;3.25;2.17;;;21.90;99.90;;;;;;12507561;23;20183;-77
2023/06/13 16:33:51;;;;;;;7.40;2.85;;;21.70;99.90;;;;;;12507046;23;20255;-77
2023/06/13 16:39:13;;;;;;;5.50;2.90;;;21.60;99.90;;;;;;12506668;23;20200;-78
2023/06/13 16:44:34;;;;;;;6.60;3.00;;;21.60;1.00;;;;;;12508861;23;20214;-78
2023/06/13 16:49:56;;;;;;;5.43;2.67;;;21.40;1.00;;;;;;12511759;23;20168;-78
2023/06/13 16:55:18;;;;;;;6.47;2.70;;;21.30;1.00;;;;;;12509947;23;20277;-78
2023/06/13 17:00:39;;;;;;;4.47;2.30;;;21.10;1.00;;;;;;12510108;23;20218;-77
2023/06/13 17:06:00;;;;;;;7.57;2.47;;;21.00;1.00;;;;;;12510368;23;20164;-78
2023/06/13 17:11:21;;;;;;;9.55;2.63;;;21.00;1.00;;;;;;12508276;23;20180;-78
2023/06/13 17:16:45;;;;;;;4.60;2.50;;;;;;;;;;12508837;23;20198;-79
2023/06/13 17:22:07;;;;;;;6.53;2.70;;;;;;;;;;12511836;23;20176;-79
2023/06/13 17:27:29;;;;;;;5.32;2.00;;;;;;;;;;12509074;23;20164;-79
2023/06/13 17:32:53;;;;;;;3.10;2.40;;;;;;;;;;12508016;23;20224;-77
2023/06/13 17:38:14;;;;;;;6.70;2.28;;;;;;;;;;12508150;23;20267;-78
2023/06/13 17:43:37;;;;;;;6.25;2.70;;;;;;;;;;12507489;23;20355;-78
2023/06/13 17:48:59;;;;;;;14.07;4.60;;;;;;;;;;12509747;23;20190;-78
2023/06/13 17:54:20;;;;;;;14.23;4.57;;;;;;;;;;12507261;23;20172;-77
2023/06/13 17:59:42;;;;;;;13.55;3.65;;;;;;;;;;12508479;23;20192;-78
2023/06/13 18:05:04;;;;;;;6.28;3.25;;;;;;;;;;12508777;23;20199;-78
2023/06/13 18:10:25;;;;;;;7.93;2.42;;;;;;;;;;12509412;23;20175;-78
2023/06/13 18:15:47;;;;;;;7.18;2.88;;;;;;;;;;12507638;23;20251;-79
2023/06/13 18:21:09;;;;;;;8.38;2.70;;;;;;;;;;12506521;23;20548;-78
2023/06/13 18:26:30;;;;;;;5.30;2.78;;;19.30;99.90;;;;;;12508644;23;20466;-78
2023/06/13 18:31:52;;;;;;;8.73;3.03;;;19.10;99.90;;;;;;12489750;23;20218;-78
2023/06/13 18:37:13;;;;;;;5.28;2.85;;;18.90;99.90;;;;;;12507266;23;20489;-76
2023/06/13 18:42:34;;;;;;;5.50;3.03;;;18.80;99.90;;;;;;12509134;23;20168;-79
2023/06/13 18:47:55;;;;;;;5.13;3.13;;;18.70;99.90;;;;;;12507236;23;20454;-76
2023/06/13 18:53:17;;;;;;;6.22;2.90;;;18.60;99.90;;;;;;12508657;23;20167;-78
2023/06/13 18:58:38;;;;;;;6.43;3.03;;;18.50;99.90;;;;;;12507940;23;20413;-79
2023/06/13 19:03:59;;;;;;;3.92;2.80;;;18.50;99.90;;;;;;12507987;23;20164;-77
2023/06/13 19:09:21;;;;;;;4.38;3.00;;;18.40;99.90;;;;;;12506359;23;20350;-78
2023/06/13 19:14:43;;;;;;;5.70;2.42;;;18.40;99.90;;;;;;12507482;23;20172;-78
2023/06/13 19:20:07;;;;;;;4.72;2.78;;;18.30;99.90;;;;;;12506796;23;20427;-77
2023/06/13 19:25:28;;;;;;;6.78;3.08;;;18.20;99.90;;;;;;12486812;23;20172;-78
2023/06/13 19:30:51;;;;;;;4.35;2.42;;;18.10;99.90;;;;;;12632219;23;20215;-78
2023/06/13 19:36:13;;;;;;;6.47;2.50;;;18.00;99.90;;;;;;12527040;23;20231;-77
2023/06/13 19:41:34;;;;;;;3.45;2.45;;;17.90;99.90;;;;;;12613367;23;20392;-77
2023/06/13 19:46:55;;;;;;;5.30;3.25;;;17.90;99.90;;;;;;12506025;23;20195;-76
2023/06/13 19:52:16;;;;;;;7.32;3.00;;;17.80;99.90;;;;;;12508129;23;20175;-76
2023/06/13 19:57:39;;;;;;;7.60;2.85;;;17.80;99.90;;;;;;12506654;23;20199;-78
2023/06/13 20:03:01;;;;;;;7.45;2.97;;;17.80;99.90;;;;;;12506680;23;20168;-77
2023/06/13 20:08:22;;;;;;;4.57;3.15;;;17.80;99.90;;;;;;12507603;23;20466;-78
2023/06/13 20:13:43;;;;;;;10.27;2.85;;;17.80;99.90;;;;;;12506824;23;20164;-78
2023/06/13 20:19:05;;;;;;;6.32;2.70;;;17.70;99.90;;;;;;12506839;23;20200;-78
2023/06/13 20:24:26;;;;;;;6.55;2.90;;;17.70;99.90;;;;;;12510372;23;20454;-78
2023/06/13 20:29:48;;;;;;;7.50;3.78;;;17.70;99.90;;;;;;12529115;23;20179;-78
2023/06/13 20:35:09;;;;;;;6.28;3.72;;;17.60;99.90;;;;;;12488375;23;20196;-78
2023/06/13 20:40:30;;;;;;;5.63;3.63;;;17.60;99.90;;;;;;12509005;23;20219;-78
2023/06/13 20:45:54;;;;;;;11.05;3.50;;;17.50;99.90;;;;;;12509397;23;20164;-78
2023/06/13 20:51:16;;;;;;;8.18;3.03;;;17.50;99.90;;;;;;12508821;23;20183;-78
2023/06/13 20:56:38;;;;;;;6.50;3.28;;;17.40;1.00;;;;;;12488601;23;20250;-78
2023/06/13 21:01:59;;;;;;;7.57;3.95;;;17.30;1.00;;;;;;12509915;23;20192;-78
2023/06/13 21:07:20;;;;;;;8.20;3.88;;;17.30;1.00;;;;;;12615227;23;20187;-78
2023/06/13 21:12:45;;;;;;;7.50;3.70;;;17.30;1.00;;;;;;12509235;23;20175;-77
2023/06/13 21:18:07;;;;;;;8.02;3.95;;;17.20;1.00;;;;;;12509383;23;20357;-78
2023/06/13 21:23:28;;;;;;;7.03;3.30;;;17.20;1.00;;;;;;12615126;23;20171;-78
2023/06/13 21:28:50;;;;;;;5.82;3.13;;;17.10;1.00;;;;;;12507871;23;20474;-78
2023/06/13 21:34:11;;;;;;;9.18;3.00;;;17.20;1.00;;;;;;12509566;23;20241;-78
2023/06/13 21:39:32;;;;;;;4.15;3.03;;;17.10;1.00;;;;;;12509253;23;20510;-79
2023/06/13 21:44:53;;;;;;;7.70;3.53;;;17.10;1.00;;;;;;12509415;23;20184;-78
2023/06/13 21:50:15;;;;;;;4.97;3.00;;;17.00;1.00;;;;;;12508253;23;20202;-78
2023/06/13 21:55:36;;;;;;;3.75;2.50;;;17.00;1.00;;;;;;12509329;23;20172;-78
2023/06/13 22:00:58;;;;;;;7.07;3.03;;;17.00;1.00;;;;;;12488034;23;20225;-77
2023/06/13 22:06:20;;;;;;;3.58;2.40;;;17.00;1.00;;;;;;12509028;23;20516;-78
2023/06/13 22:11:44;;;;;;;5.45;2.58;;;16.90;1.00;;;;;;12507902;23;20183;-77
2023/06/13 22:17:08;;;;;;;5.60;2.50;;;17.00;1.00;;;;;;12507604;23;20414;-78
2023/06/13 22:22:29;;;;;;;4.43;2.55;;;16.90;1.00;;;;;;12509244;23;20198;-77
2023/06/13 22:27:54;;;;;;;4.07;2.53;;;16.90;1.00;;;;;;12507485;23;20299;-78
2023/06/13 22:33:15;;;;;;;3.33;2.35;;;16.80;1.00;;;;;;12487654;23;20200;-77
2023/06/13 22:38:37;;;;;;;4.90;2.72;;;16.80;1.00;;;;;;12487599;23;20203;-77
2023/06/13 22:43:58;;;;;;;5.32;2.90;;;16.80;1.00;;;;;;12508329;23;20312;-77
2023/06/13 22:49:24;;;;;;;2.80;2.30;;;16.70;1.00;;;;;;12509119;23;20533;-77
2023/06/13 22:54:46;;;;;;;6.97;2.85;;;16.60;1.00;;;;;;12508637;23;20164;-78
2023/06/13 23:00:13;;;;;;;5.93;2.70;;;16.50;1.00;;;;;;12508794;23;20259;-75
2023/06/13 23:05:34;;;;;;;7.25;3.35;;;16.40;1.00;;;;;;12507532;23;20198;-78
2023/06/13 23:10:55;;;;;;;6.78;2.65;;;16.40;1.00;;;;;;12507233;23;20186;-78
2023/06/13 23:16:17;;;;;;;3.88;2.47;;;16.30;1.00;;;;;;12508118;23;20167;-78
2023/06/13 23:21:38;;;;;;;3.85;2.55;;;16.30;1.00;;;;;;12507327;23;20287;-78
2023/06/13 23:27:00;;;;;;;4.28;2.88;;;16.30;1.00;;;;;;12508102;23;20529;-78
2023/06/13 23:32:23;;;;;;;3.45;2.60;;;16.30;1.00;;;;;;12506919;23;20256;-79
2023/06/13 23:37:44;;;;;;;7.45;2.90;;;16.20;1.00;;;;;;12508140;23;20187;-78
2023/06/13 23:43:08;;;;;;;5.68;2.58;;;16.20;1.00;;;;;;12632214;23;20176;-77
2023/06/13 23:48:30;;;;;;;7.65;3.08;;;16.10;1.00;;;;;;12506563;23;20232;-78
2023/06/13 23:53:51;;;;;;;4.32;3.17;;;16.00;1.00;;;;;;12487688;23;20254;-77
2023/06/13 23:59:13;;;;;;;5.95;2.90;;;15.90;1.00;;;;;;12510417;23;20266;-78
